Botelhos, Brazil
Current Conditions -  °F | °C
As of 2:00 PM on Thursday 18 Dec 2014 (Local Time) from SBRP Reporting Station
Thunderstorm Thunderstorm  
Wind Chill: 79°   Ceiling: Unl
Heat Index: 81°   Visibility: 6mi
Dew Point: 66°   Wind: 17mph
Humidity: 65%   Direction: 110°ESE
Pressure: NA   Gusts: 30mph
Location:  21.65°S, 46.4°W
Report Text: SBRP 181600Z 11015G26KT 9999 TS VCSH SCT035 FEW040CB 26/19 Q1010
Loading
Personal Weather Stations






























Interactive Weather Map New forecast layout! Learn more

10-Day Weather Forecast

Advertisements
Track Severe Weather on mobile